Aérodrome :
LOGIN :

S'inscrire | Disclaimer

   EN    FR    IT 

 










Légende :    VFR   VFR Marginal   IFR   IFR Intensif   IFR Très Intensif
Visi : 
Plafond : 
>= 8 km
>= 3000ft
5 à 8 km
1000 à 3000 ft
1500m à 5 km
500 à 1000 ft
800 à 1500m
200 à 500 ft
< 800m
< 200 ft
Symboles :   Orages  Brouillard  Fortes neiges  Fortes précipitations  Vent > 20 kt
SIGMETs :   Divers  Orages  Givrage  Turbulence  Onde Orograph.  Cendres Volcan.







- Altitude de l'aérodrome : 82 ft
- Code IATA : ALG


DAAG - Alger Houari Boumedienne

DERNIER METAR :
  • 201530Z 26003KT 230V310 9999 FEW023TCU 21/10 Q1007

METARs EXPIRÉS :
  • 201500Z 29012KT 9999 FEW026 SCT200 20/10 Q1007
  • 201430Z 28011KT 9999 FEW026 SCT200 20/09 Q1007
  • 201400Z 28012KT 9999 FEW026 SCT073 20/10 Q1007
  • 201330Z 27011KT 230V300 9999 FEW023TCU SCT200 20/10 Q1007
  • 201300Z 27010KT 240V300 9999 FEW023TCU SCT083 BKN200 20/10 Q1007
  • 201230Z 27010KT 240V310 9999 FEW023TCU SCT086 19/11 Q1008

TAF TAF DAAG
Valide du 20 à 12h jusqu'au 21 à 12h UTC


201100Z 2012/2112 26010KT 9999 FEW023 SCT100
TEMPO 2012/2017 FEW020TCU FEW026CB
PROB40
TEMPO 2020/2104 26015G30KT
PROB30
TEMPO 2106/2112 FEW023TCU
Pas de NOTAMs connus pour ce terrain.



MET'MAP, la Météo Aéronautique d'un coup d'oeil ! - Copyright ORBIFLY Décembre 2007 - Disclaimer

ORBIFLY MET'MAP TEAM :

Programmation & Développement : Alexandra Zaïnal
Conception & Développement : Baudouin d'Aumeries
Co-Programmation & Développement : Marc-Olivier Méhu
Soutien technique & logistique : Manuel Goepfert

Contact : metmap@orbifly.com




SOURCES & CREDITS :

   NOAA